sensor_id;sensor_type;location;lat;lon;timestamp;P1;durP1;ratioP1;P2;durP2;ratioP2
75059;SDS011;63640;59.264;18.116;2024-02-16T00:01:57;71.28;;;14.07;;
75059;SDS011;63640;59.264;18.116;2024-02-16T00:04:23;58.33;;;15.18;;
75059;SDS011;63640;59.264;18.116;2024-02-16T00:06:49;50.38;;;12.95;;
75059;SDS011;63640;59.264;18.116;2024-02-16T00:09:14;84.15;;;14.63;;
75059;SDS011;63640;59.264;18.116;2024-02-16T00:11:39;54.35;;;12.65;;
75059;SDS011;63640;59.264;18.116;2024-02-16T00:14:05;58.45;;;12.55;;
75059;SDS011;63640;59.264;18.116;2024-02-16T00:16:30;52.85;;;13.45;;
75059;SDS011;63640;59.264;18.116;2024-02-16T00:18:56;97.82;;;16.48;;
75059;SDS011;63640;59.264;18.116;2024-02-16T00:21:21;70.68;;;15.45;;
75059;SDS011;63640;59.264;18.116;2024-02-16T00:23:47;77.97;;;15.23;;
75059;SDS011;63640;59.264;18.116;2024-02-16T00:26:12;102.03;;;16.08;;
75059;SDS011;63640;59.264;18.116;2024-02-16T00:28:38;37.15;;;12.23;;
75059;SDS011;63640;59.264;18.116;2024-02-16T00:31:03;57.72;;;12.60;;
75059;SDS011;63640;59.264;18.116;2024-02-16T00:33:30;70.85;;;12.98;;
75059;SDS011;63640;59.264;18.116;2024-02-16T00:35:56;84.70;;;16.10;;
75059;SDS011;63640;59.264;18.116;2024-02-16T00:38:21;57.55;;;13.60;;
75059;SDS011;63640;59.264;18.116;2024-02-16T00:40:48;56.22;;;12.32;;
75059;SDS011;63640;59.264;18.116;2024-02-16T00:43:14;44.35;;;10.40;;
75059;SDS011;63640;59.264;18.116;2024-02-16T00:45:40;40.00;;;11.32;;
75059;SDS011;63640;59.264;18.116;2024-02-16T00:48:09;59.47;;;13.32;;
75059;SDS011;63640;59.264;18.116;2024-02-16T00:50:34;62.38;;;13.15;;
75059;SDS011;63640;59.264;18.116;2024-02-16T00:53:00;61.05;;;13.65;;
75059;SDS011;63640;59.264;18.116;2024-02-16T00:55:26;62.90;;;12.32;;
75059;SDS011;63640;59.264;18.116;2024-02-16T00:57:51;79.72;;;14.13;;
75059;SDS011;63640;59.264;18.116;2024-02-16T01:00:17;41.88;;;11.15;;
75059;SDS011;63640;59.264;18.116;2024-02-16T01:02:44;119.03;;;15.70;;
75059;SDS011;63640;59.264;18.116;2024-02-16T01:05:10;252.18;;;23.05;;
75059;SDS011;63640;59.264;18.116;2024-02-16T01:07:36;34.78;;;10.60;;
75059;SDS011;63640;59.264;18.116;2024-02-16T01:10:01;79.03;;;15.70;;
75059;SDS011;63640;59.264;18.116;2024-02-16T01:12:29;58.97;;;12.23;;
75059;SDS011;63640;59.264;18.116;2024-02-16T01:14:57;39.13;;;12.60;;
75059;SDS011;63640;59.264;18.116;2024-02-16T01:17:23;75.80;;;12.65;;
75059;SDS011;63640;59.264;18.116;2024-02-16T01:19:48;65.85;;;12.85;;
75059;SDS011;63640;59.264;18.116;2024-02-16T01:22:14;63.38;;;13.82;;
75059;SDS011;63640;59.264;18.116;2024-02-16T01:24:39;69.65;;;12.93;;
75059;SDS011;63640;59.264;18.116;2024-02-16T01:27:04;44.67;;;11.07;;
75059;SDS011;63640;59.264;18.116;2024-02-16T01:29:30;61.92;;;11.20;;
75059;SDS011;63640;59.264;18.116;2024-02-16T01:31:57;49.53;;;11.70;;
75059;SDS011;63640;59.264;18.116;2024-02-16T01:34:23;54.42;;;12.65;;
75059;SDS011;63640;59.264;18.116;2024-02-16T01:36:49;62.15;;;13.25;;
75059;SDS011;63640;59.264;18.116;2024-02-16T01:39:14;56.13;;;12.80;;
75059;SDS011;63640;59.264;18.116;2024-02-16T01:41:39;57.58;;;12.13;;
75059;SDS011;63640;59.264;18.116;2024-02-16T01:44:05;37.63;;;13.15;;
75059;SDS011;63640;59.264;18.116;2024-02-16T01:46:31;36.03;;;11.95;;
75059;SDS011;63640;59.264;18.116;2024-02-16T01:48:57;61.22;;;13.18;;
75059;SDS011;63640;59.264;18.116;2024-02-16T01:51:23;63.65;;;13.57;;
75059;SDS011;63640;59.264;18.116;2024-02-16T01:53:49;35.38;;;11.45;;
75059;SDS011;63640;59.264;18.116;2024-02-16T01:56:15;48.38;;;11.13;;
75059;SDS011;63640;59.264;18.116;2024-02-16T01:58:41;44.85;;;10.43;;
75059;SDS011;63640;59.264;18.116;2024-02-16T02:01:06;53.33;;;12.20;;
75059;SDS011;63640;59.264;18.116;2024-02-16T02:03:32;48.70;;;11.18;;
75059;SDS011;63640;59.264;18.116;2024-02-16T02:06:00;35.28;;;11.13;;
75059;SDS011;63640;59.264;18.116;2024-02-16T02:08:25;31.38;;;11.35;;
75059;SDS011;63640;59.264;18.116;2024-02-16T02:10:51;196.50;;;19.75;;
75059;SDS011;63640;59.264;18.116;2024-02-16T02:13:17;50.20;;;12.95;;
75059;SDS011;63640;59.264;18.116;2024-02-16T02:15:44;29.17;;;11.77;;
75059;SDS011;63640;59.264;18.116;2024-02-16T02:18:10;41.13;;;11.25;;
75059;SDS011;63640;59.264;18.116;2024-02-16T02:20:36;29.45;;;9.82;;
75059;SDS011;63640;59.264;18.116;2024-02-16T02:23:01;27.05;;;10.38;;
75059;SDS011;63640;59.264;18.116;2024-02-16T02:25:26;24.52;;;8.85;;
75059;SDS011;63640;59.264;18.116;2024-02-16T02:27:53;28.63;;;10.13;;
75059;SDS011;63640;59.264;18.116;2024-02-16T02:30:19;25.08;;;10.35;;
75059;SDS011;63640;59.264;18.116;2024-02-16T02:32:46;22.70;;;9.23;;
75059;SDS011;63640;59.264;18.116;2024-02-16T02:35:11;21.23;;;8.23;;
75059;SDS011;63640;59.264;18.116;2024-02-16T02:37:39;23.38;;;9.85;;
75059;SDS011;63640;59.264;18.116;2024-02-16T02:40:06;26.67;;;8.60;;
75059;SDS011;63640;59.264;18.116;2024-02-16T02:42:33;22.33;;;9.98;;
75059;SDS011;63640;59.264;18.116;2024-02-16T02:44:59;27.98;;;10.70;;
75059;SDS011;63640;59.264;18.116;2024-02-16T02:47:25;24.17;;;8.38;;
75059;SDS011;63640;59.264;18.116;2024-02-16T02:49:50;25.33;;;7.97;;
75059;SDS011;63640;59.264;18.116;2024-02-16T02:52:15;18.02;;;8.15;;
75059;SDS011;63640;59.264;18.116;2024-02-16T02:54:41;23.73;;;8.57;;
75059;SDS011;63640;59.264;18.116;2024-02-16T02:57:07;13.15;;;6.13;;
75059;SDS011;63640;59.264;18.116;2024-02-16T02:59:32;21.08;;;9.05;;
75059;SDS011;63640;59.264;18.116;2024-02-16T03:01:58;23.52;;;8.35;;
75059;SDS011;63640;59.264;18.116;2024-02-16T03:04:23;18.00;;;8.55;;
75059;SDS011;63640;59.264;18.116;2024-02-16T03:06:51;18.52;;;7.38;;
75059;SDS011;63640;59.264;18.116;2024-02-16T03:09:17;19.50;;;8.50;;
75059;SDS011;63640;59.264;18.116;2024-02-16T03:11:42;14.23;;;6.20;;
75059;SDS011;63640;59.264;18.116;2024-02-16T03:14:08;18.30;;;8.38;;
75059;SDS011;63640;59.264;18.116;2024-02-16T03:16:33;21.02;;;8.57;;
75059;SDS011;63640;59.264;18.116;2024-02-16T03:18:59;70.75;;;10.48;;
75059;SDS011;63640;59.264;18.116;2024-02-16T03:21:25;16.95;;;6.97;;
75059;SDS011;63640;59.264;18.116;2024-02-16T03:23:50;17.90;;;7.88;;
75059;SDS011;63640;59.264;18.116;2024-02-16T03:26:16;19.23;;;7.68;;
75059;SDS011;63640;59.264;18.116;2024-02-16T03:28:43;17.10;;;6.60;;
75059;SDS011;63640;59.264;18.116;2024-02-16T03:31:18;13.95;;;6.18;;
75059;SDS011;63640;59.264;18.116;2024-02-16T03:33:48;18.30;;;7.68;;
75059;SDS011;63640;59.264;18.116;2024-02-16T03:36:14;15.63;;;7.13;;
75059;SDS011;63640;59.264;18.116;2024-02-16T03:38:46;33.22;;;8.88;;
75059;SDS011;63640;59.264;18.116;2024-02-16T03:41:17;40.25;;;10.02;;
75059;SDS011;63640;59.264;18.116;2024-02-16T03:43:44;15.02;;;6.82;;
75059;SDS011;63640;59.264;18.116;2024-02-16T03:46:09;17.35;;;7.15;;
75059;SDS011;63640;59.264;18.116;2024-02-16T03:48:35;13.23;;;6.68;;
75059;SDS011;63640;59.264;18.116;2024-02-16T03:51:00;25.63;;;8.05;;
75059;SDS011;63640;59.264;18.116;2024-02-16T03:53:28;14.60;;;6.15;;
75059;SDS011;63640;59.264;18.116;2024-02-16T03:55:53;20.40;;;7.72;;
75059;SDS011;63640;59.264;18.116;2024-02-16T03:58:19;176.70;;;18.35;;
75059;SDS011;63640;59.264;18.116;2024-02-16T04:00:45;13.93;;;7.13;;
75059;SDS011;63640;59.264;18.116;2024-02-16T04:03:10;15.25;;;7.35;;
75059;SDS011;63640;59.264;18.116;2024-02-16T04:05:38;10.10;;;5.72;;
75059;SDS011;63640;59.264;18.116;2024-02-16T04:08:04;14.75;;;7.40;;
75059;SDS011;63640;59.264;18.116;2024-02-16T04:10:31;13.25;;;6.15;;
75059;SDS011;63640;59.264;18.116;2024-02-16T04:12:57;11.60;;;6.40;;
75059;SDS011;63640;59.264;18.116;2024-02-16T04:15:22;11.38;;;5.72;;
75059;SDS011;63640;59.264;18.116;2024-02-16T04:17:48;14.07;;;6.30;;
75059;SDS011;63640;59.264;18.116;2024-02-16T04:20:17;14.15;;;5.88;;
75059;SDS011;63640;59.264;18.116;2024-02-16T04:22:43;10.30;;;4.88;;
75059;SDS011;63640;59.264;18.116;2024-02-16T04:25:08;12.40;;;5.07;;
75059;SDS011;63640;59.264;18.116;2024-02-16T04:27:34;10.82;;;5.38;;
75059;SDS011;63640;59.264;18.116;2024-02-16T04:30:00;11.45;;;5.05;;
75059;SDS011;63640;59.264;18.116;2024-02-16T04:32:26;9.63;;;4.68;;
75059;SDS011;63640;59.264;18.116;2024-02-16T04:34:52;11.65;;;5.97;;
75059;SDS011;63640;59.264;18.116;2024-02-16T04:37:18;8.85;;;4.30;;
75059;SDS011;63640;59.264;18.116;2024-02-16T04:39:44;11.27;;;5.10;;
75059;SDS011;63640;59.264;18.116;2024-02-16T04:42:10;10.38;;;5.40;;
75059;SDS011;63640;59.264;18.116;2024-02-16T04:44:38;12.77;;;4.78;;
75059;SDS011;63640;59.264;18.116;2024-02-16T04:47:04;9.65;;;4.57;;
75059;SDS011;63640;59.264;18.116;2024-02-16T04:49:30;236.30;;;20.65;;
75059;SDS011;63640;59.264;18.116;2024-02-16T04:51:56;10.73;;;4.32;;
75059;SDS011;63640;59.264;18.116;2024-02-16T04:54:21;7.10;;;3.95;;
75059;SDS011;63640;59.264;18.116;2024-02-16T04:56:47;8.45;;;3.92;;
75059;SDS011;63640;59.264;18.116;2024-02-16T04:59:14;7.03;;;3.45;;
75059;SDS011;63640;59.264;18.116;2024-02-16T05:01:40;8.27;;;4.50;;
75059;SDS011;63640;59.264;18.116;2024-02-16T05:04:05;8.63;;;4.25;;
75059;SDS011;63640;59.264;18.116;2024-02-16T05:06:31;117.82;;;12.18;;
75059;SDS011;63640;59.264;18.116;2024-02-16T05:08:57;10.35;;;3.97;;
75059;SDS011;63640;59.264;18.116;2024-02-16T05:11:23;6.35;;;3.40;;
75059;SDS011;63640;59.264;18.116;2024-02-16T05:13:49;7.93;;;3.38;;
75059;SDS011;63640;59.264;18.116;2024-02-16T05:16:15;8.43;;;4.22;;
75059;SDS011;63640;59.264;18.116;2024-02-16T05:18:41;6.97;;;3.40;;
75059;SDS011;63640;59.264;18.116;2024-02-16T05:21:07;7.82;;;3.90;;
75059;SDS011;63640;59.264;18.116;2024-02-16T05:23:32;8.23;;;3.90;;
75059;SDS011;63640;59.264;18.116;2024-02-16T05:25:58;5.75;;;3.35;;
75059;SDS011;63640;59.264;18.116;2024-02-16T05:28:24;7.43;;;3.65;;
75059;SDS011;63640;59.264;18.116;2024-02-16T05:30:49;7.22;;;2.97;;
75059;SDS011;63640;59.264;18.116;2024-02-16T05:33:15;6.18;;;3.42;;
75059;SDS011;63640;59.264;18.116;2024-02-16T05:35:40;21.17;;;4.65;;
75059;SDS011;63640;59.264;18.116;2024-02-16T05:38:06;6.55;;;3.40;;
75059;SDS011;63640;59.264;18.116;2024-02-16T05:40:49;7.97;;;3.00;;
75059;SDS011;63640;59.264;18.116;2024-02-16T05:43:22;5.72;;;2.88;;
75059;SDS011;63640;59.264;18.116;2024-02-16T05:45:48;6.68;;;3.17;;
75059;SDS011;63640;59.264;18.116;2024-02-16T05:48:14;6.40;;;3.08;;
75059;SDS011;63640;59.264;18.116;2024-02-16T05:50:40;7.40;;;3.65;;
75059;SDS011;63640;59.264;18.116;2024-02-16T05:53:06;6.85;;;3.63;;
75059;SDS011;63640;59.264;18.116;2024-02-16T05:55:32;6.03;;;2.88;;
75059;SDS011;63640;59.264;18.116;2024-02-16T05:57:57;5.40;;;2.30;;
75059;SDS011;63640;59.264;18.116;2024-02-16T06:00:23;6.80;;;2.35;;
75059;SDS011;63640;59.264;18.116;2024-02-16T06:02:48;7.28;;;2.28;;
75059;SDS011;63640;59.264;18.116;2024-02-16T06:05:14;6.53;;;2.92;;
75059;SDS011;63640;59.264;18.116;2024-02-16T06:07:40;5.22;;;2.20;;
75059;SDS011;63640;59.264;18.116;2024-02-16T06:10:05;4.88;;;2.35;;
75059;SDS011;63640;59.264;18.116;2024-02-16T06:12:38;5.00;;;2.30;;
75059;SDS011;63640;59.264;18.116;2024-02-16T06:15:04;5.10;;;2.40;;
75059;SDS011;63640;59.264;18.116;2024-02-16T06:17:30;5.32;;;2.58;;
75059;SDS011;63640;59.264;18.116;2024-02-16T06:19:56;5.60;;;2.17;;
75059;SDS011;63640;59.264;18.116;2024-02-16T06:22:21;4.78;;;2.00;;
75059;SDS011;63640;59.264;18.116;2024-02-16T06:24:47;5.28;;;2.38;;
75059;SDS011;63640;59.264;18.116;2024-02-16T06:27:12;5.53;;;2.50;;
75059;SDS011;63640;59.264;18.116;2024-02-16T06:29:38;5.03;;;2.17;;
75059;SDS011;63640;59.264;18.116;2024-02-16T06:32:04;5.60;;;2.17;;
75059;SDS011;63640;59.264;18.116;2024-02-16T06:34:30;5.10;;;2.20;;
75059;SDS011;63640;59.264;18.116;2024-02-16T06:36:56;4.40;;;1.75;;
75059;SDS011;63640;59.264;18.116;2024-02-16T06:39:22;4.18;;;1.52;;
75059;SDS011;63640;59.264;18.116;2024-02-16T06:41:47;97.07;;;7.47;;
75059;SDS011;63640;59.264;18.116;2024-02-16T06:44:14;577.80;;;40.40;;
75059;SDS011;63640;59.264;18.116;2024-02-16T06:46:41;4.35;;;2.10;;
75059;SDS011;63640;59.264;18.116;2024-02-16T06:49:07;4.90;;;1.90;;
75059;SDS011;63640;59.264;18.116;2024-02-16T06:51:32;3.70;;;1.40;;
75059;SDS011;63640;59.264;18.116;2024-02-16T06:53:58;4.00;;;1.63;;
75059;SDS011;63640;59.264;18.116;2024-02-16T06:56:23;4.93;;;1.80;;
75059;SDS011;63640;59.264;18.116;2024-02-16T06:58:49;4.75;;;1.65;;
75059;SDS011;63640;59.264;18.116;2024-02-16T07:01:15;4.18;;;1.60;;
75059;SDS011;63640;59.264;18.116;2024-02-16T07:03:44;4.32;;;1.77;;
75059;SDS011;63640;59.264;18.116;2024-02-16T07:06:10;4.00;;;1.77;;
75059;SDS011;63640;59.264;18.116;2024-02-16T07:08:41;4.57;;;1.50;;
75059;SDS011;63640;59.264;18.116;2024-02-16T07:11:08;4.32;;;1.70;;
75059;SDS011;63640;59.264;18.116;2024-02-16T07:13:36;4.55;;;2.13;;
75059;SDS011;63640;59.264;18.116;2024-02-16T07:16:02;4.00;;;1.63;;
75059;SDS011;63640;59.264;18.116;2024-02-16T07:18:29;5.72;;;1.70;;
75059;SDS011;63640;59.264;18.116;2024-02-16T07:20:55;27.73;;;3.10;;
75059;SDS011;63640;59.264;18.116;2024-02-16T07:23:21;4.07;;;1.70;;
75059;SDS011;63640;59.264;18.116;2024-02-16T07:25:47;5.40;;;2.50;;
75059;SDS011;63640;59.264;18.116;2024-02-16T07:28:14;4.20;;;1.80;;
75059;SDS011;63640;59.264;18.116;2024-02-16T07:30:39;4.55;;;2.00;;
75059;SDS011;63640;59.264;18.116;2024-02-16T07:33:05;4.50;;;1.48;;
75059;SDS011;63640;59.264;18.116;2024-02-16T07:35:32;4.32;;;1.60;;
75059;SDS011;63640;59.264;18.116;2024-02-16T07:38:01;5.63;;;1.70;;
75059;SDS011;63640;59.264;18.116;2024-02-16T07:40:30;5.75;;;1.95;;
75059;SDS011;63640;59.264;18.116;2024-02-16T07:42:58;4.55;;;1.95;;
75059;SDS011;63640;59.264;18.116;2024-02-16T07:45:24;4.97;;;1.98;;
75059;SDS011;63640;59.264;18.116;2024-02-16T07:47:50;4.53;;;2.05;;
75059;SDS011;63640;59.264;18.116;2024-02-16T07:50:19;37.15;;;4.15;;
75059;SDS011;63640;59.264;18.116;2024-02-16T07:52:45;4.03;;;1.58;;
75059;SDS011;63640;59.264;18.116;2024-02-16T07:55:11;5.10;;;1.85;;
75059;SDS011;63640;59.264;18.116;2024-02-16T07:57:37;4.88;;;2.00;;
75059;SDS011;63640;59.264;18.116;2024-02-16T08:00:03;4.70;;;2.15;;
75059;SDS011;63640;59.264;18.116;2024-02-16T08:02:29;5.53;;;2.45;;
75059;SDS011;63640;59.264;18.116;2024-02-16T08:04:55;4.95;;;2.22;;
75059;SDS011;63640;59.264;18.116;2024-02-16T08:07:20;6.13;;;2.50;;
75059;SDS011;63640;59.264;18.116;2024-02-16T08:09:46;5.68;;;2.45;;
75059;SDS011;63640;59.264;18.116;2024-02-16T08:12:12;11.15;;;2.70;;
75059;SDS011;63640;59.264;18.116;2024-02-16T08:14:38;5.13;;;2.20;;
75059;SDS011;63640;59.264;18.116;2024-02-16T08:17:08;5.18;;;2.30;;
75059;SDS011;63640;59.264;18.116;2024-02-16T08:19:35;5.72;;;2.10;;
75059;SDS011;63640;59.264;18.116;2024-02-16T08:22:02;7.00;;;1.88;;
75059;SDS011;63640;59.264;18.116;2024-02-16T08:24:29;5.57;;;1.75;;
75059;SDS011;63640;59.264;18.116;2024-02-16T08:26:56;5.30;;;1.90;;
75059;SDS011;63640;59.264;18.116;2024-02-16T08:29:22;4.40;;;1.50;;
75059;SDS011;63640;59.264;18.116;2024-02-16T08:31:48;3.38;;;1.27;;
75059;SDS011;63640;59.264;18.116;2024-02-16T08:34:15;3.80;;;1.50;;
75059;SDS011;63640;59.264;18.116;2024-02-16T08:36:46;3.75;;;1.20;;
75059;SDS011;63640;59.264;18.116;2024-02-16T08:39:12;3.20;;;1.10;;
75059;SDS011;63640;59.264;18.116;2024-02-16T08:41:38;3.55;;;1.05;;
75059;SDS011;63640;59.264;18.116;2024-02-16T08:44:04;2.95;;;1.00;;
75059;SDS011;63640;59.264;18.116;2024-02-16T08:46:32;3.45;;;1.02;;
75059;SDS011;63640;59.264;18.116;2024-02-16T08:48:58;2.83;;;1.10;;
75059;SDS011;63640;59.264;18.116;2024-02-16T08:51:23;3.88;;;1.27;;
75059;SDS011;63640;59.264;18.116;2024-02-16T08:53:49;3.28;;;1.25;;
75059;SDS011;63640;59.264;18.116;2024-02-16T08:56:14;3.55;;;1.00;;
75059;SDS011;63640;59.264;18.116;2024-02-16T08:58:41;4.05;;;1.20;;
75059;SDS011;63640;59.264;18.116;2024-02-16T09:01:06;3.83;;;1.60;;
75059;SDS011;63640;59.264;18.116;2024-02-16T09:03:31;2.72;;;0.90;;
75059;SDS011;63640;59.264;18.116;2024-02-16T09:06:02;3.45;;;1.30;;
75059;SDS011;63640;59.264;18.116;2024-02-16T09:08:28;3.65;;;1.20;;
75059;SDS011;63640;59.264;18.116;2024-02-16T09:10:58;4.20;;;1.10;;
75059;SDS011;63640;59.264;18.116;2024-02-16T09:13:24;3.25;;;1.10;;
75059;SDS011;63640;59.264;18.116;2024-02-16T09:15:49;3.78;;;1.15;;
75059;SDS011;63640;59.264;18.116;2024-02-16T09:18:16;3.53;;;1.15;;
75059;SDS011;63640;59.264;18.116;2024-02-16T09:20:42;2.90;;;1.00;;
75059;SDS011;63640;59.264;18.116;2024-02-16T09:23:08;2.92;;;1.10;;
75059;SDS011;63640;59.264;18.116;2024-02-16T09:25:34;3.45;;;1.20;;
75059;SDS011;63640;59.264;18.116;2024-02-16T09:28:00;3.63;;;1.00;;
75059;SDS011;63640;59.264;18.116;2024-02-16T09:30:25;3.30;;;1.13;;
75059;SDS011;63640;59.264;18.116;2024-02-16T09:32:51;3.72;;;0.90;;
75059;SDS011;63640;59.264;18.116;2024-02-16T09:35:17;3.25;;;1.00;;
75059;SDS011;63640;59.264;18.116;2024-02-16T09:37:42;3.03;;;0.82;;
75059;SDS011;63640;59.264;18.116;2024-02-16T09:40:08;2.85;;;1.00;;
75059;SDS011;63640;59.264;18.116;2024-02-16T09:42:37;2.65;;;0.80;;
75059;SDS011;63640;59.264;18.116;2024-02-16T09:45:04;3.30;;;1.10;;
75059;SDS011;63640;59.264;18.116;2024-02-16T09:47:30;2.05;;;0.80;;
75059;SDS011;63640;59.264;18.116;2024-02-16T09:49:59;3.30;;;1.23;;
75059;SDS011;63640;59.264;18.116;2024-02-16T09:52:25;4.10;;;1.48;;
75059;SDS011;63640;59.264;18.116;2024-02-16T09:54:51;3.92;;;1.40;;
75059;SDS011;63640;59.264;18.116;2024-02-16T09:57:17;4.57;;;1.50;;
75059;SDS011;63640;59.264;18.116;2024-02-16T09:59:43;3.45;;;1.10;;
75059;SDS011;63640;59.264;18.116;2024-02-16T10:02:08;4.30;;;1.50;;
75059;SDS011;63640;59.264;18.116;2024-02-16T10:04:34;3.95;;;1.65;;
75059;SDS011;63640;59.264;18.116;2024-02-16T10:07:00;4.80;;;1.30;;
75059;SDS011;63640;59.264;18.116;2024-02-16T10:09:26;3.75;;;1.42;;
75059;SDS011;63640;59.264;18.116;2024-02-16T10:11:57;4.03;;;1.50;;
75059;SDS011;63640;59.264;18.116;2024-02-16T10:14:22;4.68;;;1.63;;
75059;SDS011;63640;59.264;18.116;2024-02-16T10:16:59;3.88;;;1.33;;
75059;SDS011;63640;59.264;18.116;2024-02-16T10:19:27;3.60;;;1.30;;
75059;SDS011;63640;59.264;18.116;2024-02-16T10:21:53;3.22;;;1.13;;
75059;SDS011;63640;59.264;18.116;2024-02-16T10:24:21;3.70;;;1.25;;
75059;SDS011;63640;59.264;18.116;2024-02-16T10:26:47;9.13;;;1.67;;
75059;SDS011;63640;59.264;18.116;2024-02-16T10:29:14;3.15;;;1.10;;
75059;SDS011;63640;59.264;18.116;2024-02-16T10:31:44;3.33;;;1.15;;
75059;SDS011;63640;59.264;18.116;2024-02-16T10:34:09;4.45;;;1.50;;
75059;SDS011;63640;59.264;18.116;2024-02-16T10:36:36;3.65;;;1.30;;
75059;SDS011;63640;59.264;18.116;2024-02-16T10:39:02;4.45;;;1.40;;
75059;SDS011;63640;59.264;18.116;2024-02-16T10:41:42;3.67;;;1.25;;
75059;SDS011;63640;59.264;18.116;2024-02-16T10:44:09;2.83;;;1.10;;
75059;SDS011;63640;59.264;18.116;2024-02-16T10:46:35;3.60;;;1.30;;
75059;SDS011;63640;59.264;18.116;2024-02-16T10:49:00;3.55;;;1.15;;
75059;SDS011;63640;59.264;18.116;2024-02-16T10:54:03;3.30;;;1.05;;
75059;SDS011;63640;59.264;18.116;2024-02-16T10:56:36;3.10;;;0.90;;
75059;SDS011;63640;59.264;18.116;2024-02-16T10:59:04;4.30;;;1.15;;
75059;SDS011;63640;59.264;18.116;2024-02-16T11:01:43;3.75;;;1.23;;
75059;SDS011;63640;59.264;18.116;2024-02-16T11:04:13;2.60;;;0.90;;
75059;SDS011;63640;59.264;18.116;2024-02-16T11:09:22;2.35;;;0.90;;
75059;SDS011;63640;59.264;18.116;2024-02-16T11:12:03;3.30;;;1.02;;
75059;SDS011;63640;59.264;18.116;2024-02-16T11:14:36;3.55;;;0.95;;
75059;SDS011;63640;59.264;18.116;2024-02-16T11:17:09;2.30;;;0.80;;
75059;SDS011;63640;59.264;18.116;2024-02-16T11:19:39;2.55;;;1.00;;
75059;SDS011;63640;59.264;18.116;2024-02-16T11:22:05;2.63;;;0.80;;
75059;SDS011;63640;59.264;18.116;2024-02-16T11:24:34;2.58;;;1.00;;
75059;SDS011;63640;59.264;18.116;2024-02-16T11:27:04;5.38;;;1.13;;
75059;SDS011;63640;59.264;18.116;2024-02-16T11:29:34;3.20;;;1.13;;
75059;SDS011;63640;59.264;18.116;2024-02-16T11:32:03;3.70;;;1.20;;
75059;SDS011;63640;59.264;18.116;2024-02-16T11:34:30;5.13;;;1.27;;
75059;SDS011;63640;59.264;18.116;2024-02-16T11:36:57;5.07;;;1.50;;
75059;SDS011;63640;59.264;18.116;2024-02-16T11:39:23;3.67;;;1.50;;
75059;SDS011;63640;59.264;18.116;2024-02-16T11:42:04;4.28;;;1.27;;
75059;SDS011;63640;59.264;18.116;2024-02-16T11:44:36;3.90;;;1.30;;
75059;SDS011;63640;59.264;18.116;2024-02-16T11:47:04;4.50;;;1.33;;
75059;SDS011;63640;59.264;18.116;2024-02-16T11:49:32;4.38;;;1.45;;
75059;SDS011;63640;59.264;18.116;2024-02-16T11:52:00;4.15;;;1.55;;
75059;SDS011;63640;59.264;18.116;2024-02-16T11:54:26;4.75;;;1.70;;
75059;SDS011;63640;59.264;18.116;2024-02-16T11:56:51;4.38;;;1.30;;
75059;SDS011;63640;59.264;18.116;2024-02-16T11:59:18;5.90;;;1.77;;
75059;SDS011;63640;59.264;18.116;2024-02-16T12:01:56;5.07;;;1.58;;
75059;SDS011;63640;59.264;18.116;2024-02-16T12:04:23;4.53;;;1.88;;
75059;SDS011;63640;59.264;18.116;2024-02-16T12:06:56;4.55;;;1.38;;
75059;SDS011;63640;59.264;18.116;2024-02-16T12:09:23;3.45;;;1.23;;
75059;SDS011;63640;59.264;18.116;2024-02-16T12:11:50;3.15;;;1.20;;
75059;SDS011;63640;59.264;18.116;2024-02-16T12:14:16;3.67;;;1.40;;
75059;SDS011;63640;59.264;18.116;2024-02-16T12:16:46;3.28;;;1.10;;
75059;SDS011;63640;59.264;18.116;2024-02-16T12:19:21;3.40;;;1.20;;
75059;SDS011;63640;59.264;18.116;2024-02-16T12:21:50;3.03;;;0.95;;
75059;SDS011;63640;59.264;18.116;2024-02-16T12:24:17;2.97;;;1.00;;
75059;SDS011;63640;59.264;18.116;2024-02-16T12:26:43;3.22;;;1.00;;
75059;SDS011;63640;59.264;18.116;2024-02-16T12:29:08;2.85;;;1.02;;
75059;SDS011;63640;59.264;18.116;2024-02-16T12:31:37;2.65;;;1.00;;
75059;SDS011;63640;59.264;18.116;2024-02-16T12:34:03;2.90;;;1.00;;
75059;SDS011;63640;59.264;18.116;2024-02-16T12:36:30;2.00;;;0.77;;
75059;SDS011;63640;59.264;18.116;2024-02-16T12:38:56;3.35;;;1.20;;
75059;SDS011;63640;59.264;18.116;2024-02-16T12:41:21;3.28;;;1.20;;
75059;SDS011;63640;59.264;18.116;2024-02-16T12:43:47;2.90;;;0.90;;
75059;SDS011;63640;59.264;18.116;2024-02-16T12:46:12;3.55;;;0.90;;
75059;SDS011;63640;59.264;18.116;2024-02-16T12:48:38;2.65;;;0.90;;
75059;SDS011;63640;59.264;18.116;2024-02-16T12:51:04;2.95;;;1.00;;
75059;SDS011;63640;59.264;18.116;2024-02-16T12:53:30;2.63;;;0.90;;
75059;SDS011;63640;59.264;18.116;2024-02-16T12:56:05;2.67;;;0.80;;
75059;SDS011;63640;59.264;18.116;2024-02-16T12:58:34;2.45;;;0.88;;
75059;SDS011;63640;59.264;18.116;2024-02-16T13:01:00;2.35;;;0.90;;
75059;SDS011;63640;59.264;18.116;2024-02-16T13:03:27;2.72;;;0.80;;
75059;SDS011;63640;59.264;18.116;2024-02-16T13:05:53;4.20;;;1.00;;
75059;SDS011;63640;59.264;18.116;2024-02-16T13:08:18;2.00;;;0.70;;
75059;SDS011;63640;59.264;18.116;2024-02-16T13:10:44;1.92;;;0.70;;
75059;SDS011;63640;59.264;18.116;2024-02-16T13:13:09;1.60;;;0.80;;
75059;SDS011;63640;59.264;18.116;2024-02-16T13:15:35;2.95;;;0.98;;
75059;SDS011;63640;59.264;18.116;2024-02-16T13:18:00;3.33;;;0.95;;
75059;SDS011;63640;59.264;18.116;2024-02-16T13:20:26;2.88;;;1.10;;
75059;SDS011;63640;59.264;18.116;2024-02-16T13:22:52;2.67;;;1.00;;
75059;SDS011;63640;59.264;18.116;2024-02-16T13:25:18;2.85;;;1.05;;
75059;SDS011;63640;59.264;18.116;2024-02-16T13:27:44;3.22;;;1.10;;
75059;SDS011;63640;59.264;18.116;2024-02-16T13:30:10;2.17;;;0.80;;
75059;SDS011;63640;59.264;18.116;2024-02-16T13:32:36;3.15;;;1.02;;
75059;SDS011;63640;59.264;18.116;2024-02-16T13:35:05;3.47;;;1.13;;
75059;SDS011;63640;59.264;18.116;2024-02-16T13:37:31;3.65;;;1.00;;
75059;SDS011;63640;59.264;18.116;2024-02-16T13:39:57;3.55;;;0.90;;
75059;SDS011;63640;59.264;18.116;2024-02-16T13:42:23;4.10;;;0.93;;
75059;SDS011;63640;59.264;18.116;2024-02-16T13:44:49;2.40;;;0.82;;
75059;SDS011;63640;59.264;18.116;2024-02-16T13:47:14;1.77;;;0.63;;
75059;SDS011;63640;59.264;18.116;2024-02-16T13:49:40;2.78;;;1.10;;
75059;SDS011;63640;59.264;18.116;2024-02-16T13:52:05;1.80;;;0.60;;
75059;SDS011;63640;59.264;18.116;2024-02-16T13:54:33;2.13;;;0.70;;
75059;SDS011;63640;59.264;18.116;2024-02-16T13:57:00;2.80;;;0.80;;
75059;SDS011;63640;59.264;18.116;2024-02-16T13:59:26;2.85;;;0.80;;
75059;SDS011;63640;59.264;18.116;2024-02-16T14:01:51;2.30;;;0.70;;
75059;SDS011;63640;59.264;18.116;2024-02-16T14:04:17;2.90;;;0.70;;
75059;SDS011;63640;59.264;18.116;2024-02-16T14:06:43;1.83;;;0.55;;
75059;SDS011;63640;59.264;18.116;2024-02-16T14:09:09;2.00;;;0.70;;
75059;SDS011;63640;59.264;18.116;2024-02-16T14:11:35;1.85;;;0.60;;
75059;SDS011;63640;59.264;18.116;2024-02-16T14:14:01;2.17;;;0.80;;
75059;SDS011;63640;59.264;18.116;2024-02-16T14:16:27;3.20;;;0.75;;
75059;SDS011;63640;59.264;18.116;2024-02-16T14:18:52;2.53;;;0.90;;
75059;SDS011;63640;59.264;18.116;2024-02-16T14:21:18;2.92;;;0.70;;
75059;SDS011;63640;59.264;18.116;2024-02-16T14:23:43;2.30;;;0.52;;
75059;SDS011;63640;59.264;18.116;2024-02-16T14:26:09;2.30;;;0.80;;
75059;SDS011;63640;59.264;18.116;2024-02-16T14:28:35;2.28;;;0.70;;